createdAt,value
2023-02-17T00:01:48.831Z,33.2
2023-02-17T00:17:31.465Z,34.59
2023-02-17T00:33:14.555Z,36.59
2023-02-17T00:48:57.607Z,37.4
2023-02-17T01:04:40.208Z,47.2
2023-02-17T01:20:22.908Z,51.8
2023-02-17T01:36:05.935Z,46.6
2023-02-17T01:51:48.947Z,41.9
2023-02-17T02:07:31.612Z,46.4
2023-02-17T02:23:13.721Z,47
2023-02-17T02:38:56.483Z,54.8
2023-02-17T02:54:39.635Z,63.7
2023-02-17T03:10:21.713Z,61.3
2023-02-17T03:26:04.693Z,69.4
2023-02-17T03:41:47.801Z,67.4
2023-02-17T03:57:30.256Z,69.3
2023-02-17T04:13:12.545Z,70.4
2023-02-17T04:28:55.135Z,79.8
2023-02-17T04:44:37.400Z,79.1
2023-02-17T05:00:20.274Z,79.19
2023-02-17T05:16:03.065Z,81.6
2023-02-17T05:31:45.953Z,77.3
2023-02-17T05:47:28.693Z,78.6
2023-02-17T06:03:11.579Z,82.2
2023-02-17T06:18:54.306Z,71.4
2023-02-17T06:34:36.871Z,70.19
2023-02-17T06:50:19.500Z,64.4
2023-02-17T07:06:01.773Z,57.1
2023-02-17T07:21:44.080Z,47.4
2023-02-17T07:37:26.603Z,39.5
2023-02-17T07:53:09.336Z,33.4
2023-02-17T08:08:51.531Z,31.2
2023-02-17T08:24:33.978Z,28.5
2023-02-17T08:40:16.990Z,29.1
2023-02-17T08:55:59.889Z,27.2
2023-02-17T09:11:42.623Z,29
2023-02-17T09:27:24.782Z,27.9
2023-02-17T09:43:07.328Z,28.3
2023-02-17T09:58:49.557Z,33.8
2023-02-17T10:14:31.753Z,30.2
2023-02-17T10:30:14.794Z,31.2
2023-02-17T10:45:57.930Z,33.4
2023-02-17T11:01:40.131Z,30.8
2023-02-17T11:17:22.954Z,26.3
2023-02-17T11:33:05.550Z,23.9
2023-02-17T11:48:48.357Z,22.3
2023-02-17T12:04:30.977Z,17.9
2023-02-17T12:20:13.696Z,13.8
2023-02-17T12:35:55.793Z,12.8
2023-02-17T12:51:38.491Z,11.7
2023-02-17T13:07:21.107Z,10.8
2023-02-17T13:23:03.242Z,10
2023-02-17T13:38:46.232Z,13.5
2023-02-17T13:54:28.540Z,11.8
2023-02-17T14:10:10.948Z,13.1
2023-02-17T14:25:53.494Z,14.8
2023-02-17T14:41:36.324Z,8.3
2023-02-17T14:57:19.261Z,8.3
2023-02-17T15:13:01.976Z,11.7
2023-02-17T15:13:49.270Z,11.5
2023-02-17T15:29:31.845Z,15.2
2023-02-17T15:45:14.734Z,17.4
2023-02-17T16:00:57.614Z,16.7
2023-02-17T16:16:39.898Z,16.79
2023-02-17T16:32:22.611Z,17.5
2023-02-17T16:48:04.901Z,13.4
2023-02-17T17:03:47.593Z,11.9
2023-02-17T17:19:30.182Z,8.8
2023-02-17T17:35:12.544Z,9.8
2023-02-17T17:50:55.548Z,8.5
2023-02-17T18:06:38.383Z,7.2
2023-02-17T18:22:20.578Z,6.6
2023-02-17T18:38:02.936Z,6.6
2023-02-17T18:53:45.347Z,7.4
2023-02-17T19:09:27.403Z,6.2
2023-02-17T19:25:09.613Z,8.3
2023-02-17T19:40:51.750Z,6.1
2023-02-17T19:56:34.753Z,5.2
2023-02-17T20:12:16.933Z,6.7
2023-02-17T20:27:59.555Z,8.5
2023-02-17T20:43:41.862Z,7.8
2023-02-17T20:59:24.102Z,9.3
2023-02-17T21:15:06.496Z,10
2023-02-17T21:30:49.588Z,9.3
2023-02-17T21:46:32.135Z,11.7
2023-02-17T22:02:14.216Z,9.7
2023-02-17T22:17:56.894Z,10.1
2023-02-17T22:33:40.157Z,11.6
2023-02-17T22:49:22.127Z,10.8
2023-02-17T23:05:05.051Z,9.39
2023-02-17T23:20:47.420Z,15
2023-02-17T23:36:29.774Z,13.3
2023-02-17T23:52:12.461Z,11
